sensor_id;sensor_type;location;lat;lon;timestamp;temperature;humidity
43949;DHT22;29429;51.074;13.764;2022-12-20T00:01:31;1.50;99.90
43949;DHT22;29429;51.074;13.764;2022-12-20T00:04:03;1.40;99.90
43949;DHT22;29429;51.074;13.764;2022-12-20T00:06:33;1.50;99.90
43949;DHT22;29429;51.074;13.764;2022-12-20T00:09:04;1.40;99.90
43949;DHT22;29429;51.074;13.764;2022-12-20T00:11:32;1.50;99.90
43949;DHT22;29429;51.074;13.764;2022-12-20T00:14:00;1.50;99.90
43949;DHT22;29429;51.074;13.764;2022-12-20T00:16:28;1.50;99.90
43949;DHT22;29429;51.074;13.764;2022-12-20T00:19:00;1.40;99.90
43949;DHT22;29429;51.074;13.764;2022-12-20T00:21:31;1.50;99.90
43949;DHT22;29429;51.074;13.764;2022-12-20T00:23:59;1.40;99.90
43949;DHT22;29429;51.074;13.764;2022-12-20T00:26:29;1.50;99.90
43949;DHT22;29429;51.074;13.764;2022-12-20T00:28:58;1.40;99.90
43949;DHT22;29429;51.074;13.764;2022-12-20T00:31:28;1.50;99.90
43949;DHT22;29429;51.074;13.764;2022-12-20T00:33:57;1.40;99.90
43949;DHT22;29429;51.074;13.764;2022-12-20T00:36:28;1.40;99.90
43949;DHT22;29429;51.074;13.764;2022-12-20T00:38:58;1.50;99.90
43949;DHT22;29429;51.074;13.764;2022-12-20T00:41:29;1.50;99.90
43949;DHT22;29429;51.074;13.764;2022-12-20T00:43:57;1.50;99.90
43949;DHT22;29429;51.074;13.764;2022-12-20T00:46:25;1.50;99.90
43949;DHT22;29429;51.074;13.764;2022-12-20T00:48:54;1.50;99.90
43949;DHT22;29429;51.074;13.764;2022-12-20T00:51:24;1.50;99.90
43949;DHT22;29429;51.074;13.764;2022-12-20T00:53:54;1.50;99.90
43949;DHT22;29429;51.074;13.764;2022-12-20T00:56:21;1.60;99.90
43949;DHT22;29429;51.074;13.764;2022-12-20T00:58:51;1.60;99.90
43949;DHT22;29429;51.074;13.764;2022-12-20T01:01:25;1.60;99.90
43949;DHT22;29429;51.074;13.764;2022-12-20T01:03:53;1.50;99.90
43949;DHT22;29429;51.074;13.764;2022-12-20T01:06:22;1.60;99.90
43949;DHT22;29429;51.074;13.764;2022-12-20T01:08:51;1.60;99.90
43949;DHT22;29429;51.074;13.764;2022-12-20T01:11:24;1.60;99.90
43949;DHT22;29429;51.074;13.764;2022-12-20T01:13:55;1.80;99.90
43949;DHT22;29429;51.074;13.764;2022-12-20T01:16:31;1.70;99.90
43949;DHT22;29429;51.074;13.764;2022-12-20T01:19:03;1.80;99.90
43949;DHT22;29429;51.074;13.764;2022-12-20T01:21:31;1.90;99.90
43949;DHT22;29429;51.074;13.764;2022-12-20T01:23:58;2.00;99.90
43949;DHT22;29429;51.074;13.764;2022-12-20T01:26:27;2.10;99.90
43949;DHT22;29429;51.074;13.764;2022-12-20T01:28:58;2.30;99.90
43949;DHT22;29429;51.074;13.764;2022-12-20T01:31:27;2.20;99.90
43949;DHT22;29429;51.074;13.764;2022-12-20T01:33:55;2.20;99.90
43949;DHT22;29429;51.074;13.764;2022-12-20T01:36:26;2.30;99.90
43949;DHT22;29429;51.074;13.764;2022-12-20T01:39:10;2.30;99.90
43949;DHT22;29429;51.074;13.764;2022-12-20T01:41:40;2.30;99.90
43949;DHT22;29429;51.074;13.764;2022-12-20T01:46:46;2.30;99.90
43949;DHT22;29429;51.074;13.764;2022-12-20T01:49:30;2.40;99.90
43949;DHT22;29429;51.074;13.764;2022-12-20T01:52:03;2.30;99.90
43949;DHT22;29429;51.074;13.764;2022-12-20T01:54:38;2.30;99.90
43949;DHT22;29429;51.074;13.764;2022-12-20T02:00:37;2.30;99.90
43949;DHT22;29429;51.074;13.764;2022-12-20T02:03:07;2.30;99.90
43949;DHT22;29429;51.074;13.764;2022-12-20T02:05:39;2.30;99.90
43949;DHT22;29429;51.074;13.764;2022-12-20T02:08:09;2.40;99.90
43949;DHT22;29429;51.074;13.764;2022-12-20T02:11:00;2.40;99.90
43949;DHT22;29429;51.074;13.764;2022-12-20T02:16:14;2.50;99.90
43949;DHT22;29429;51.074;13.764;2022-12-20T02:18:59;2.50;99.90
43949;DHT22;29429;51.074;13.764;2022-12-20T02:30:22;2.50;99.90
43949;DHT22;29429;51.074;13.764;2022-12-20T02:33:03;2.60;99.90
43949;DHT22;29429;51.074;13.764;2022-12-20T02:35:37;2.60;99.90
43949;DHT22;29429;51.074;13.764;2022-12-20T02:38:28;2.60;99.90
43949;DHT22;29429;51.074;13.764;2022-12-20T02:41:08;2.60;99.90
43949;DHT22;29429;51.074;13.764;2022-12-20T02:43:47;2.60;99.90
43949;DHT22;29429;51.074;13.764;2022-12-20T02:46:37;2.60;99.90
43949;DHT22;29429;51.074;13.764;2022-12-20T02:49:09;2.60;99.90
43949;DHT22;29429;51.074;13.764;2022-12-20T02:51:42;2.70;99.90
43949;DHT22;29429;51.074;13.764;2022-12-20T02:54:12;2.60;99.90
43949;DHT22;29429;51.074;13.764;2022-12-20T02:56:50;2.50;99.90
43949;DHT22;29429;51.074;13.764;2022-12-20T02:59:28;2.50;99.90
43949;DHT22;29429;51.074;13.764;2022-12-20T03:01:58;2.50;99.90
43949;DHT22;29429;51.074;13.764;2022-12-20T03:04:28;2.40;99.90
43949;DHT22;29429;51.074;13.764;2022-12-20T03:06:59;2.40;99.90
43949;DHT22;29429;51.074;13.764;2022-12-20T03:09:30;2.40;99.90
43949;DHT22;29429;51.074;13.764;2022-12-20T03:11:59;2.30;99.90
43949;DHT22;29429;51.074;13.764;2022-12-20T03:14:29;2.50;99.90
43949;DHT22;29429;51.074;13.764;2022-12-20T03:16:58;2.30;99.90
43949;DHT22;29429;51.074;13.764;2022-12-20T03:19:25;2.30;99.90
43949;DHT22;29429;51.074;13.764;2022-12-20T03:21:53;2.30;99.90
43949;DHT22;29429;51.074;13.764;2022-12-20T03:24:20;2.30;99.90
43949;DHT22;29429;51.074;13.764;2022-12-20T03:26:48;2.40;99.90
43949;DHT22;29429;51.074;13.764;2022-12-20T03:29:18;2.40;99.90
43949;DHT22;29429;51.074;13.764;2022-12-20T03:31:45;2.50;99.90
43949;DHT22;29429;51.074;13.764;2022-12-20T03:34:12;2.50;99.90
43949;DHT22;29429;51.074;13.764;2022-12-20T03:36:39;2.50;99.90
43949;DHT22;29429;51.074;13.764;2022-12-20T03:39:06;2.50;99.90
43949;DHT22;29429;51.074;13.764;2022-12-20T03:41:36;2.50;99.90
43949;DHT22;29429;51.074;13.764;2022-12-20T03:44:05;2.50;99.90
43949;DHT22;29429;51.074;13.764;2022-12-20T03:46:32;2.60;99.90
43949;DHT22;29429;51.074;13.764;2022-12-20T03:48:59;2.70;99.90
43949;DHT22;29429;51.074;13.764;2022-12-20T03:51:27;2.70;99.90
43949;DHT22;29429;51.074;13.764;2022-12-20T03:53:55;2.70;99.90
43949;DHT22;29429;51.074;13.764;2022-12-20T03:56:33;2.70;99.90
43949;DHT22;29429;51.074;13.764;2022-12-20T03:59:02;2.70;99.90
43949;DHT22;29429;51.074;13.764;2022-12-20T04:01:30;2.70;99.90
43949;DHT22;29429;51.074;13.764;2022-12-20T04:03:57;2.70;99.90
43949;DHT22;29429;51.074;13.764;2022-12-20T04:06:25;2.60;99.90
43949;DHT22;29429;51.074;13.764;2022-12-20T04:08:52;2.70;99.90
43949;DHT22;29429;51.074;13.764;2022-12-20T04:11:25;2.70;99.90
43949;DHT22;29429;51.074;13.764;2022-12-20T04:14:04;2.60;99.90
43949;DHT22;29429;51.074;13.764;2022-12-20T04:16:32;2.70;99.90
43949;DHT22;29429;51.074;13.764;2022-12-20T04:19:00;2.70;99.90
43949;DHT22;29429;51.074;13.764;2022-12-20T04:21:34;2.70;99.90
43949;DHT22;29429;51.074;13.764;2022-12-20T04:24:04;2.70;99.90
43949;DHT22;29429;51.074;13.764;2022-12-20T04:26:45;2.70;99.90
43949;DHT22;29429;51.074;13.764;2022-12-20T04:29:12;2.80;99.90
43949;DHT22;29429;51.074;13.764;2022-12-20T04:31:41;2.80;99.90
43949;DHT22;29429;51.074;13.764;2022-12-20T04:34:08;2.80;99.90
43949;DHT22;29429;51.074;13.764;2022-12-20T04:36:35;2.80;99.90
43949;DHT22;29429;51.074;13.764;2022-12-20T04:39:06;2.80;99.90
43949;DHT22;29429;51.074;13.764;2022-12-20T04:41:43;2.80;99.90
43949;DHT22;29429;51.074;13.764;2022-12-20T04:44:12;2.90;99.90
43949;DHT22;29429;51.074;13.764;2022-12-20T04:46:39;2.80;99.90
43949;DHT22;29429;51.074;13.764;2022-12-20T04:49:10;2.90;99.90
43949;DHT22;29429;51.074;13.764;2022-12-20T04:51:42;2.80;99.90
43949;DHT22;29429;51.074;13.764;2022-12-20T04:54:10;2.80;99.90
43949;DHT22;29429;51.074;13.764;2022-12-20T04:56:43;2.80;99.90
43949;DHT22;29429;51.074;13.764;2022-12-20T04:59:16;2.80;99.90
43949;DHT22;29429;51.074;13.764;2022-12-20T05:01:46;2.80;99.90
43949;DHT22;29429;51.074;13.764;2022-12-20T05:04:24;2.80;99.90
43949;DHT22;29429;51.074;13.764;2022-12-20T05:06:57;2.80;99.90
43949;DHT22;29429;51.074;13.764;2022-12-20T05:09:24;2.70;99.90
43949;DHT22;29429;51.074;13.764;2022-12-20T05:11:54;2.70;99.90
43949;DHT22;29429;51.074;13.764;2022-12-20T05:14:21;2.80;99.90
43949;DHT22;29429;51.074;13.764;2022-12-20T05:16:49;2.80;99.90
43949;DHT22;29429;51.074;13.764;2022-12-20T05:19:16;2.80;99.90
43949;DHT22;29429;51.074;13.764;2022-12-20T05:21:43;2.80;99.90
43949;DHT22;29429;51.074;13.764;2022-12-20T05:24:29;2.80;99.90
43949;DHT22;29429;51.074;13.764;2022-12-20T05:27:42;2.80;99.90
43949;DHT22;29429;51.074;13.764;2022-12-20T05:30:09;2.80;99.90
43949;DHT22;29429;51.074;13.764;2022-12-20T05:32:38;2.90;99.90
43949;DHT22;29429;51.074;13.764;2022-12-20T05:35:05;2.90;99.90
43949;DHT22;29429;51.074;13.764;2022-12-20T05:37:33;2.90;99.90
43949;DHT22;29429;51.074;13.764;2022-12-20T05:40:08;2.90;99.90
43949;DHT22;29429;51.074;13.764;2022-12-20T05:42:35;2.90;99.90
43949;DHT22;29429;51.074;13.764;2022-12-20T05:45:03;2.90;99.90
43949;DHT22;29429;51.074;13.764;2022-12-20T05:47:40;2.90;99.90
43949;DHT22;29429;51.074;13.764;2022-12-20T05:50:10;2.90;99.90
43949;DHT22;29429;51.074;13.764;2022-12-20T05:53:04;2.90;99.90
43949;DHT22;29429;51.074;13.764;2022-12-20T05:55:50;2.90;99.90
43949;DHT22;29429;51.074;13.764;2022-12-20T05:58:19;3.00;99.90
43949;DHT22;29429;51.074;13.764;2022-12-20T06:00:54;3.00;99.90
43949;DHT22;29429;51.074;13.764;2022-12-20T06:03:23;3.00;99.90
43949;DHT22;29429;51.074;13.764;2022-12-20T06:05:51;3.00;99.90
43949;DHT22;29429;51.074;13.764;2022-12-20T06:08:24;3.10;99.90
43949;DHT22;29429;51.074;13.764;2022-12-20T06:10:53;3.10;99.90
43949;DHT22;29429;51.074;13.764;2022-12-20T06:13:21;3.20;99.90
43949;DHT22;29429;51.074;13.764;2022-12-20T06:15:51;3.10;99.90
43949;DHT22;29429;51.074;13.764;2022-12-20T06:18:20;3.10;99.90
43949;DHT22;29429;51.074;13.764;2022-12-20T06:20:51;3.10;99.90
43949;DHT22;29429;51.074;13.764;2022-12-20T06:23:22;3.10;99.90
43949;DHT22;29429;51.074;13.764;2022-12-20T06:26:10;3.30;99.90
43949;DHT22;29429;51.074;13.764;2022-12-20T06:28:45;3.10;99.90
43949;DHT22;29429;51.074;13.764;2022-12-20T06:31:12;3.20;99.90
43949;DHT22;29429;51.074;13.764;2022-12-20T06:33:50;3.20;99.90
43949;DHT22;29429;51.074;13.764;2022-12-20T06:36:19;3.20;99.90
43949;DHT22;29429;51.074;13.764;2022-12-20T06:38:47;3.20;99.90
43949;DHT22;29429;51.074;13.764;2022-12-20T06:41:14;3.10;99.90
43949;DHT22;29429;51.074;13.764;2022-12-20T06:43:41;3.10;99.90
43949;DHT22;29429;51.074;13.764;2022-12-20T06:46:11;3.10;99.90
43949;DHT22;29429;51.074;13.764;2022-12-20T06:48:39;3.10;99.90
43949;DHT22;29429;51.074;13.764;2022-12-20T06:51:11;3.10;99.90
43949;DHT22;29429;51.074;13.764;2022-12-20T06:53:43;3.10;99.90
43949;DHT22;29429;51.074;13.764;2022-12-20T06:56:10;3.10;99.90
43949;DHT22;29429;51.074;13.764;2022-12-20T06:59:04;3.10;99.90
43949;DHT22;29429;51.074;13.764;2022-12-20T07:01:32;3.10;99.90
43949;DHT22;29429;51.074;13.764;2022-12-20T07:03:59;3.00;99.90
43949;DHT22;29429;51.074;13.764;2022-12-20T07:06:26;3.00;99.90
43949;DHT22;29429;51.074;13.764;2022-12-20T07:08:55;3.00;99.90
43949;DHT22;29429;51.074;13.764;2022-12-20T07:11:22;3.00;99.90
43949;DHT22;29429;51.074;13.764;2022-12-20T07:13:54;3.00;99.90
43949;DHT22;29429;51.074;13.764;2022-12-20T07:16:22;2.90;99.90
43949;DHT22;29429;51.074;13.764;2022-12-20T07:18:51;3.10;99.90
43949;DHT22;29429;51.074;13.764;2022-12-20T07:21:19;3.20;99.90
43949;DHT22;29429;51.074;13.764;2022-12-20T07:23:47;3.20;99.90
43949;DHT22;29429;51.074;13.764;2022-12-20T07:26:14;3.30;99.90
43949;DHT22;29429;51.074;13.764;2022-12-20T07:28:41;3.60;99.90
43949;DHT22;29429;51.074;13.764;2022-12-20T07:31:09;3.60;99.90
43949;DHT22;29429;51.074;13.764;2022-12-20T07:33:36;3.60;99.90
43949;DHT22;29429;51.074;13.764;2022-12-20T07:36:06;3.50;99.90
43949;DHT22;29429;51.074;13.764;2022-12-20T07:38:36;3.50;99.90
43949;DHT22;29429;51.074;13.764;2022-12-20T07:41:10;3.30;99.90
43949;DHT22;29429;51.074;13.764;2022-12-20T07:43:41;3.30;99.90
43949;DHT22;29429;51.074;13.764;2022-12-20T07:46:14;3.40;99.90
43949;DHT22;29429;51.074;13.764;2022-12-20T07:48:44;3.20;99.90
43949;DHT22;29429;51.074;13.764;2022-12-20T07:51:23;3.30;99.90
43949;DHT22;29429;51.074;13.764;2022-12-20T07:54:02;3.30;99.90
43949;DHT22;29429;51.074;13.764;2022-12-20T07:56:44;3.30;99.90
43949;DHT22;29429;51.074;13.764;2022-12-20T07:59:19;3.40;99.90
43949;DHT22;29429;51.074;13.764;2022-12-20T08:01:49;3.40;99.90
43949;DHT22;29429;51.074;13.764;2022-12-20T08:04:20;3.40;99.90
43949;DHT22;29429;51.074;13.764;2022-12-20T08:06:51;3.40;99.90
43949;DHT22;29429;51.074;13.764;2022-12-20T08:09:47;3.40;99.90
43949;DHT22;29429;51.074;13.764;2022-12-20T08:12:18;3.40;99.90
43949;DHT22;29429;51.074;13.764;2022-12-20T08:15:01;3.30;99.90
43949;DHT22;29429;51.074;13.764;2022-12-20T08:17:28;3.30;99.90
43949;DHT22;29429;51.074;13.764;2022-12-20T08:19:55;3.30;99.90
43949;DHT22;29429;51.074;13.764;2022-12-20T08:22:23;3.30;99.90
43949;DHT22;29429;51.074;13.764;2022-12-20T08:24:50;3.40;99.90
43949;DHT22;29429;51.074;13.764;2022-12-20T08:27:17;3.40;99.90
43949;DHT22;29429;51.074;13.764;2022-12-20T08:29:44;3.40;99.90
43949;DHT22;29429;51.074;13.764;2022-12-20T08:32:11;3.50;99.90
43949;DHT22;29429;51.074;13.764;2022-12-20T08:34:39;3.40;99.90
43949;DHT22;29429;51.074;13.764;2022-12-20T08:37:06;3.40;99.90
43949;DHT22;29429;51.074;13.764;2022-12-20T08:39:40;3.40;99.90
43949;DHT22;29429;51.074;13.764;2022-12-20T08:42:07;3.40;99.90
43949;DHT22;29429;51.074;13.764;2022-12-20T08:44:38;3.40;99.90
43949;DHT22;29429;51.074;13.764;2022-12-20T08:47:06;3.30;99.90
43949;DHT22;29429;51.074;13.764;2022-12-20T08:49:33;3.30;99.90
43949;DHT22;29429;51.074;13.764;2022-12-20T08:52:00;3.20;99.90
43949;DHT22;29429;51.074;13.764;2022-12-20T08:54:28;3.20;99.90
43949;DHT22;29429;51.074;13.764;2022-12-20T08:56:55;3.20;99.90
43949;DHT22;29429;51.074;13.764;2022-12-20T08:59:25;3.20;99.90
43949;DHT22;29429;51.074;13.764;2022-12-20T09:01:52;3.30;99.90
43949;DHT22;29429;51.074;13.764;2022-12-20T09:04:20;3.20;99.90
43949;DHT22;29429;51.074;13.764;2022-12-20T09:06:54;3.30;99.90
43949;DHT22;29429;51.074;13.764;2022-12-20T09:09:22;3.30;99.90
43949;DHT22;29429;51.074;13.764;2022-12-20T09:11:49;3.40;99.90
43949;DHT22;29429;51.074;13.764;2022-12-20T09:14:28;3.40;99.90
43949;DHT22;29429;51.074;13.764;2022-12-20T09:16:56;3.40;99.90
43949;DHT22;29429;51.074;13.764;2022-12-20T09:19:23;3.50;99.90
43949;DHT22;29429;51.074;13.764;2022-12-20T09:21:50;3.60;99.90
43949;DHT22;29429;51.074;13.764;2022-12-20T09:24:17;3.60;99.90
43949;DHT22;29429;51.074;13.764;2022-12-20T09:26:44;3.60;99.90
43949;DHT22;29429;51.074;13.764;2022-12-20T09:29:15;3.60;99.90
43949;DHT22;29429;51.074;13.764;2022-12-20T09:31:52;3.70;99.90
43949;DHT22;29429;51.074;13.764;2022-12-20T09:34:19;3.70;99.90
43949;DHT22;29429;51.074;13.764;2022-12-20T09:36:46;3.70;99.90
43949;DHT22;29429;51.074;13.764;2022-12-20T09:39:13;3.70;99.90
43949;DHT22;29429;51.074;13.764;2022-12-20T09:41:41;3.80;99.90
43949;DHT22;29429;51.074;13.764;2022-12-20T09:47:18;3.90;99.90
43949;DHT22;29429;51.074;13.764;2022-12-20T09:49:52;3.90;99.90
43949;DHT22;29429;51.074;13.764;2022-12-20T09:55:19;4.00;99.90
43949;DHT22;29429;51.074;13.764;2022-12-20T10:00:49;4.10;99.90
43949;DHT22;29429;51.074;13.764;2022-12-20T10:03:32;4.20;99.90
43949;DHT22;29429;51.074;13.764;2022-12-20T10:06:32;4.30;99.90
43949;DHT22;29429;51.074;13.764;2022-12-20T10:09:09;4.50;99.90
43949;DHT22;29429;51.074;13.764;2022-12-20T10:26:22;4.70;99.90
43949;DHT22;29429;51.074;13.764;2022-12-20T10:28:50;4.60;99.90
43949;DHT22;29429;51.074;13.764;2022-12-20T10:31:21;4.50;99.90
43949;DHT22;29429;51.074;13.764;2022-12-20T10:33:48;4.60;99.90
43949;DHT22;29429;51.074;13.764;2022-12-20T10:36:31;4.40;99.90
43949;DHT22;29429;51.074;13.764;2022-12-20T10:39:05;4.30;99.90
43949;DHT22;29429;51.074;13.764;2022-12-20T10:44:26;4.20;99.90
43949;DHT22;29429;51.074;13.764;2022-12-20T10:46:59;4.30;99.90
43949;DHT22;29429;51.074;13.764;2022-12-20T10:49:38;4.20;99.90
43949;DHT22;29429;51.074;13.764;2022-12-20T10:52:41;4.20;99.90
43949;DHT22;29429;51.074;13.764;2022-12-20T10:55:42;4.20;99.90
43949;DHT22;29429;51.074;13.764;2022-12-20T10:58:55;4.20;99.90
43949;DHT22;29429;51.074;13.764;2022-12-20T11:01:35;4.20;99.90
43949;DHT22;29429;51.074;13.764;2022-12-20T11:04:27;4.20;99.90
43949;DHT22;29429;51.074;13.764;2022-12-20T11:07:27;4.10;99.90
43949;DHT22;29429;51.074;13.764;2022-12-20T11:10:21;4.00;99.90
43949;DHT22;29429;51.074;13.764;2022-12-20T11:13:22;4.00;99.90
43949;DHT22;29429;51.074;13.764;2022-12-20T11:16:03;3.70;99.90
43949;DHT22;29429;51.074;13.764;2022-12-20T11:35:02;4.30;99.90
43949;DHT22;29429;51.074;13.764;2022-12-20T11:47:17;4.50;99.90
43949;DHT22;29429;51.074;13.764;2022-12-20T11:50:01;4.20;99.90
43949;DHT22;29429;51.074;13.764;2022-12-20T11:52:51;4.00;99.90
43949;DHT22;29429;51.074;13.764;2022-12-20T11:55:27;4.00;99.90
43949;DHT22;29429;51.074;13.764;2022-12-20T11:58:10;3.90;99.90
43949;DHT22;29429;51.074;13.764;2022-12-20T12:01:19;4.00;99.90
43949;DHT22;29429;51.074;13.764;2022-12-20T12:18:20;4.20;99.90
43949;DHT22;29429;51.074;13.764;2022-12-20T12:26:37;4.10;99.90
43949;DHT22;29429;51.074;13.764;2022-12-20T12:29:17;4.00;99.90
43949;DHT22;29429;51.074;13.764;2022-12-20T12:38:02;3.80;99.90
43949;DHT22;29429;51.074;13.764;2022-12-20T12:44:07;3.80;99.90
43949;DHT22;29429;51.074;13.764;2022-12-20T12:46:56;3.70;99.90
43949;DHT22;29429;51.074;13.764;2022-12-20T12:49:28;3.80;99.90
43949;DHT22;29429;51.074;13.764;2022-12-20T12:52:04;3.90;99.90
43949;DHT22;29429;51.074;13.764;2022-12-20T12:54:38;3.70;99.90
43949;DHT22;29429;51.074;13.764;2022-12-20T12:57:09;3.60;99.90
43949;DHT22;29429;51.074;13.764;2022-12-20T12:59:49;3.70;99.90
43949;DHT22;29429;51.074;13.764;2022-12-20T13:04:59;3.70;99.90
43949;DHT22;29429;51.074;13.764;2022-12-20T13:13:28;3.80;99.90
43949;DHT22;29429;51.074;13.764;2022-12-20T13:16:28;3.60;99.90
43949;DHT22;29429;51.074;13.764;2022-12-20T13:19:51;3.70;99.90
43949;DHT22;29429;51.074;13.764;2022-12-20T13:27:12;3.70;99.90
43949;DHT22;29429;51.074;13.764;2022-12-20T13:33:16;3.70;99.90
43949;DHT22;29429;51.074;13.764;2022-12-20T13:39:36;3.70;99.90
43949;DHT22;29429;51.074;13.764;2022-12-20T13:42:39;4.00;99.90
43949;DHT22;29429;51.074;13.764;2022-12-20T13:45:24;3.60;99.90
43949;DHT22;29429;51.074;13.764;2022-12-20T13:48:58;3.60;99.90
43949;DHT22;29429;51.074;13.764;2022-12-20T13:51:29;3.60;99.90
43949;DHT22;29429;51.074;13.764;2022-12-20T13:54:01;3.50;99.90
43949;DHT22;29429;51.074;13.764;2022-12-20T13:56:47;3.60;99.90
43949;DHT22;29429;51.074;13.764;2022-12-20T13:59:31;3.50;99.90
43949;DHT22;29429;51.074;13.764;2022-12-20T14:02:03;3.40;99.90
43949;DHT22;29429;51.074;13.764;2022-12-20T14:04:45;3.60;99.90
43949;DHT22;29429;51.074;13.764;2022-12-20T14:07:26;3.60;99.90
43949;DHT22;29429;51.074;13.764;2022-12-20T14:09:58;3.40;99.90
43949;DHT22;29429;51.074;13.764;2022-12-20T14:12:28;3.50;99.90
43949;DHT22;29429;51.074;13.764;2022-12-20T14:15:18;3.50;99.90
43949;DHT22;29429;51.074;13.764;2022-12-20T14:17:50;3.40;99.90
43949;DHT22;29429;51.074;13.764;2022-12-20T14:20:38;3.40;99.90
43949;DHT22;29429;51.074;13.764;2022-12-20T14:23:17;3.40;99.90
43949;DHT22;29429;51.074;13.764;2022-12-20T14:25:57;3.50;99.90
43949;DHT22;29429;51.074;13.764;2022-12-20T14:28:38;3.40;99.90
43949;DHT22;29429;51.074;13.764;2022-12-20T14:34:02;3.50;99.90
43949;DHT22;29429;51.074;13.764;2022-12-20T14:36:32;3.40;99.90
43949;DHT22;29429;51.074;13.764;2022-12-20T14:39:00;3.60;99.90
43949;DHT22;29429;51.074;13.764;2022-12-20T14:41:37;3.50;99.90
43949;DHT22;29429;51.074;13.764;2022-12-20T14:44:16;3.50;99.90
43949;DHT22;29429;51.074;13.764;2022-12-20T14:49:56;3.50;99.90
43949;DHT22;29429;51.074;13.764;2022-12-20T14:52:36;3.50;99.90
43949;DHT22;29429;51.074;13.764;2022-12-20T14:55:07;3.50;99.90
43949;DHT22;29429;51.074;13.764;2022-12-20T14:57:45;3.50;99.90
43949;DHT22;29429;51.074;13.764;2022-12-20T15:10:51;3.50;99.90
43949;DHT22;29429;51.074;13.764;2022-12-20T15:13:26;3.60;99.90
43949;DHT22;29429;51.074;13.764;2022-12-20T15:15:56;3.70;99.90
43949;DHT22;29429;51.074;13.764;2022-12-20T15:18:25;3.60;99.90
43949;DHT22;29429;51.074;13.764;2022-12-20T15:21:04;3.60;99.90
43949;DHT22;29429;51.074;13.764;2022-12-20T15:23:31;3.60;99.90
43949;DHT22;29429;51.074;13.764;2022-12-20T15:26:00;3.70;99.90
43949;DHT22;29429;51.074;13.764;2022-12-20T15:28:27;3.60;99.90
43949;DHT22;29429;51.074;13.764;2022-12-20T15:30:54;3.70;99.90
43949;DHT22;29429;51.074;13.764;2022-12-20T15:33:26;3.70;99.90
43949;DHT22;29429;51.074;13.764;2022-12-20T15:35:56;3.80;99.90
43949;DHT22;29429;51.074;13.764;2022-12-20T15:38:25;3.70;99.90
43949;DHT22;29429;51.074;13.764;2022-12-20T15:41:25;3.70;99.90
43949;DHT22;29429;51.074;13.764;2022-12-20T15:43:58;3.70;99.90
43949;DHT22;29429;51.074;13.764;2022-12-20T15:46:29;3.70;99.90
43949;DHT22;29429;51.074;13.764;2022-12-20T15:48:57;3.60;99.90
43949;DHT22;29429;51.074;13.764;2022-12-20T15:54:01;3.70;99.90
43949;DHT22;29429;51.074;13.764;2022-12-20T15:56:32;3.70;99.90
43949;DHT22;29429;51.074;13.764;2022-12-20T15:58:59;3.80;99.90
43949;DHT22;29429;51.074;13.764;2022-12-20T16:01:43;3.70;99.90
43949;DHT22;29429;51.074;13.764;2022-12-20T16:04:14;3.70;99.90
43949;DHT22;29429;51.074;13.764;2022-12-20T16:06:45;3.80;99.90
43949;DHT22;29429;51.074;13.764;2022-12-20T16:09:14;3.70;99.90
43949;DHT22;29429;51.074;13.764;2022-12-20T16:11:41;4.10;99.90
43949;DHT22;29429;51.074;13.764;2022-12-20T16:14:17;3.80;99.90
43949;DHT22;29429;51.074;13.764;2022-12-20T16:16:49;3.80;99.90
43949;DHT22;29429;51.074;13.764;2022-12-20T16:19:17;3.80;99.90
43949;DHT22;29429;51.074;13.764;2022-12-20T16:21:50;3.90;99.90
43949;DHT22;29429;51.074;13.764;2022-12-20T16:24:19;3.80;99.90
43949;DHT22;29429;51.074;13.764;2022-12-20T16:26:49;3.80;99.90
43949;DHT22;29429;51.074;13.764;2022-12-20T16:29:17;3.80;99.90
43949;DHT22;29429;51.074;13.764;2022-12-20T16:31:44;3.90;99.90
43949;DHT22;29429;51.074;13.764;2022-12-20T16:34:16;3.80;99.90
43949;DHT22;29429;51.074;13.764;2022-12-20T16:36:45;3.80;99.90
43949;DHT22;29429;51.074;13.764;2022-12-20T16:39:12;3.70;99.90
43949;DHT22;29429;51.074;13.764;2022-12-20T16:41:40;3.90;99.90
43949;DHT22;29429;51.074;13.764;2022-12-20T16:44:15;3.70;99.90
43949;DHT22;29429;51.074;13.764;2022-12-20T16:46:42;3.70;99.90
43949;DHT22;29429;51.074;13.764;2022-12-20T16:49:11;3.70;99.90
43949;DHT22;29429;51.074;13.764;2022-12-20T16:51:47;3.70;99.90
43949;DHT22;29429;51.074;13.764;2022-12-20T16:54:19;3.70;99.90
43949;DHT22;29429;51.074;13.764;2022-12-20T16:56:51;3.80;99.90
43949;DHT22;29429;51.074;13.764;2022-12-20T16:59:22;3.70;99.90
43949;DHT22;29429;51.074;13.764;2022-12-20T17:01:52;3.70;99.90
43949;DHT22;29429;51.074;13.764;2022-12-20T17:04:22;3.70;99.90
43949;DHT22;29429;51.074;13.764;2022-12-20T17:06:49;3.60;99.90
43949;DHT22;29429;51.074;13.764;2022-12-20T17:09:18;3.70;99.90
43949;DHT22;29429;51.074;13.764;2022-12-20T17:12:08;3.80;99.90
43949;DHT22;29429;51.074;13.764;2022-12-20T17:14:40;3.60;99.90
43949;DHT22;29429;51.074;13.764;2022-12-20T17:17:08;3.60;99.90
43949;DHT22;29429;51.074;13.764;2022-12-20T17:19:36;3.60;99.90
43949;DHT22;29429;51.074;13.764;2022-12-20T17:22:04;3.60;99.90
43949;DHT22;29429;51.074;13.764;2022-12-20T17:24:50;3.50;99.90
43949;DHT22;29429;51.074;13.764;2022-12-20T17:27:17;3.50;99.90
43949;DHT22;29429;51.074;13.764;2022-12-20T17:29:44;3.50;99.90
43949;DHT22;29429;51.074;13.764;2022-12-20T17:32:38;3.50;99.90
43949;DHT22;29429;51.074;13.764;2022-12-20T17:35:11;3.30;99.90
43949;DHT22;29429;51.074;13.764;2022-12-20T17:37:43;3.50;99.90
43949;DHT22;29429;51.074;13.764;2022-12-20T17:40:15;3.40;99.90
43949;DHT22;29429;51.074;13.764;2022-12-20T17:42:42;3.50;99.90
43949;DHT22;29429;51.074;13.764;2022-12-20T17:45:30;3.30;99.90
43949;DHT22;29429;51.074;13.764;2022-12-20T17:48:01;3.50;99.90
43949;DHT22;29429;51.074;13.764;2022-12-20T17:50:28;3.40;99.90
43949;DHT22;29429;51.074;13.764;2022-12-20T17:52:55;3.50;99.90
43949;DHT22;29429;51.074;13.764;2022-12-20T17:55:26;3.60;99.90
43949;DHT22;29429;51.074;13.764;2022-12-20T17:57:54;3.50;99.90
43949;DHT22;29429;51.074;13.764;2022-12-20T18:00:30;3.50;99.90
43949;DHT22;29429;51.074;13.764;2022-12-20T18:03:05;3.70;99.90
43949;DHT22;29429;51.074;13.764;2022-12-20T18:05:32;3.60;99.90
43949;DHT22;29429;51.074;13.764;2022-12-20T18:08:00;3.50;99.90
43949;DHT22;29429;51.074;13.764;2022-12-20T18:10:26;3.50;99.90
43949;DHT22;29429;51.074;13.764;2022-12-20T18:12:53;3.50;99.90
43949;DHT22;29429;51.074;13.764;2022-12-20T18:15:20;3.60;99.90
43949;DHT22;29429;51.074;13.764;2022-12-20T18:17:47;3.90;99.90
43949;DHT22;29429;51.074;13.764;2022-12-20T18:20:14;3.60;99.90
43949;DHT22;29429;51.074;13.764;2022-12-20T18:22:41;3.50;99.90
43949;DHT22;29429;51.074;13.764;2022-12-20T18:25:09;3.60;99.90
43949;DHT22;29429;51.074;13.764;2022-12-20T18:27:40;3.60;99.90